sensor_id;sensor_type;location;lat;lon;timestamp;pressure;altitude;pressure_sealevel;temperature;humidity
9462;BME280;4769;42.660;23.262;2023-07-28T00:00:16;94106.91;;;17.22;59.24
9462;BME280;4769;42.660;23.262;2023-07-28T00:02:42;94096.97;;;17.56;58.82
9462;BME280;4769;42.660;23.262;2023-07-28T00:05:08;94096.22;;;17.51;57.95
9462;BME280;4769;42.660;23.262;2023-07-28T00:07:33;94095.34;;;16.70;60.13
9462;BME280;4769;42.660;23.262;2023-07-28T00:09:59;94094.59;;;16.98;59.33
9462;BME280;4769;42.660;23.262;2023-07-28T00:12:25;94095.81;;;17.10;58.21
9462;BME280;4769;42.660;23.262;2023-07-28T00:15:00;94091.09;;;17.02;57.91
9462;BME280;4769;42.660;23.262;2023-07-28T00:17:28;94091.63;;;17.04;58.26
9462;BME280;4769;42.660;23.262;2023-07-28T00:19:54;94092.88;;;16.78;58.58
9462;BME280;4769;42.660;23.262;2023-07-28T00:22:19;94093.25;;;16.67;57.92
9462;BME280;4769;42.660;23.262;2023-07-28T00:24:45;94081.09;;;16.56;58.17
9462;BME280;4769;42.660;23.262;2023-07-28T00:27:11;94089.06;;;16.56;58.53
9462;BME280;4769;42.660;23.262;2023-07-28T00:29:36;94083.50;;;16.91;56.95
9462;BME280;4769;42.660;23.262;2023-07-28T00:32:02;94078.84;;;17.01;56.36
9462;BME280;4769;42.660;23.262;2023-07-28T00:34:31;94082.59;;;17.00;55.08
9462;BME280;4769;42.660;23.262;2023-07-28T00:36:56;94080.25;;;16.94;54.88
9462;BME280;4769;42.660;23.262;2023-07-28T00:39:22;94091.63;;;17.33;53.15
9462;BME280;4769;42.660;23.262;2023-07-28T00:41:48;94091.78;;;17.13;52.57
9462;BME280;4769;42.660;23.262;2023-07-28T00:44:13;94076.00;;;16.93;53.34
9462;BME280;4769;42.660;23.262;2023-07-28T00:46:39;94090.97;;;17.17;52.67
9462;BME280;4769;42.660;23.262;2023-07-28T00:49:05;94087.81;;;17.39;52.28
9462;BME280;4769;42.660;23.262;2023-07-28T00:51:35;94086.44;;;17.70;51.93
9462;BME280;4769;42.660;23.262;2023-07-28T00:54:01;94087.53;;;18.11;51.64
9462;BME280;4769;42.660;23.262;2023-07-28T00:56:27;94088.31;;;18.35;50.88
9462;BME280;4769;42.660;23.262;2023-07-28T00:58:53;94081.09;;;18.35;51.05
9462;BME280;4769;42.660;23.262;2023-07-28T01:01:19;94093.19;;;18.46;52.06
9462;BME280;4769;42.660;23.262;2023-07-28T01:03:45;94074.75;;;18.50;52.91
9462;BME280;4769;42.660;23.262;2023-07-28T01:06:26;94083.25;;;18.52;54.17
9462;BME280;4769;42.660;23.262;2023-07-28T01:08:59;94088.31;;;18.30;55.31
9462;BME280;4769;42.660;23.262;2023-07-28T01:11:26;94081.69;;;18.27;55.56
9462;BME280;4769;42.660;23.262;2023-07-28T01:13:53;94080.53;;;18.38;55.73
9462;BME280;4769;42.660;23.262;2023-07-28T01:16:19;94083.31;;;18.28;56.18
9462;BME280;4769;42.660;23.262;2023-07-28T01:18:45;94090.59;;;18.41;56.28
9462;BME280;4769;42.660;23.262;2023-07-28T01:21:20;94084.28;;;18.32;56.72
9462;BME280;4769;42.660;23.262;2023-07-28T01:23:52;94088.44;;;18.43;56.86
9462;BME280;4769;42.660;23.262;2023-07-28T01:26:30;94082.84;;;18.45;56.88
9462;BME280;4769;42.660;23.262;2023-07-28T01:28:57;94085.25;;;18.41;57.20
9462;BME280;4769;42.660;23.262;2023-07-28T01:31:23;94091.31;;;18.28;57.91
9462;BME280;4769;42.660;23.262;2023-07-28T01:33:49;94093.97;;;18.28;57.81
9462;BME280;4769;42.660;23.262;2023-07-28T01:36:15;94087.84;;;18.28;58.05
9462;BME280;4769;42.660;23.262;2023-07-28T01:38:41;94085.44;;;18.26;58.30
9462;BME280;4769;42.660;23.262;2023-07-28T01:41:06;94091.28;;;18.10;59.33
9462;BME280;4769;42.660;23.262;2023-07-28T01:43:35;94088.19;;;18.03;59.56
9462;BME280;4769;42.660;23.262;2023-07-28T01:46:00;94092.78;;;17.97;60.06
9462;BME280;4769;42.660;23.262;2023-07-28T01:48:26;94087.22;;;17.94;60.37
9462;BME280;4769;42.660;23.262;2023-07-28T01:50:52;94082.91;;;17.98;60.22
9462;BME280;4769;42.660;23.262;2023-07-28T01:53:18;94087.88;;;18.04;60.03
9462;BME280;4769;42.660;23.262;2023-07-28T01:55:43;94089.81;;;17.99;60.31
9462;BME280;4769;42.660;23.262;2023-07-28T01:58:09;94094.97;;;17.90;60.73
9462;BME280;4769;42.660;23.262;2023-07-28T02:00:37;94098.13;;;17.97;61.07
9462;BME280;4769;42.660;23.262;2023-07-28T02:03:03;94096.22;;;17.56;62.38
9462;BME280;4769;42.660;23.262;2023-07-28T02:05:38;94099.53;;;17.43;62.81
9462;BME280;4769;42.660;23.262;2023-07-28T02:08:04;94098.84;;;17.27;63.98
9462;BME280;4769;42.660;23.262;2023-07-28T02:10:30;94095.50;;;17.45;63.27
9462;BME280;4769;42.660;23.262;2023-07-28T02:12:56;94093.53;;;17.56;62.80
9462;BME280;4769;42.660;23.262;2023-07-28T02:15:21;94102.66;;;17.50;63.22
9462;BME280;4769;42.660;23.262;2023-07-28T02:17:50;94097.66;;;17.15;64.14
9462;BME280;4769;42.660;23.262;2023-07-28T02:20:15;94095.44;;;17.22;64.24
9462;BME280;4769;42.660;23.262;2023-07-28T02:22:42;94099.00;;;17.41;63.15
9462;BME280;4769;42.660;23.262;2023-07-28T02:25:08;94102.72;;;17.11;64.21
9462;BME280;4769;42.660;23.262;2023-07-28T02:27:34;94102.03;;;17.01;64.74
9462;BME280;4769;42.660;23.262;2023-07-28T02:30:00;94099.28;;;17.11;64.25
9462;BME280;4769;42.660;23.262;2023-07-28T02:32:26;94098.25;;;17.07;64.38
9462;BME280;4769;42.660;23.262;2023-07-28T02:34:54;94096.69;;;17.29;63.84
9462;BME280;4769;42.660;23.262;2023-07-28T02:37:20;94099.75;;;17.46;63.26
9462;BME280;4769;42.660;23.262;2023-07-28T02:39:46;94102.03;;;17.58;62.42
9462;BME280;4769;42.660;23.262;2023-07-28T02:42:12;94105.31;;;17.50;62.78
9462;BME280;4769;42.660;23.262;2023-07-28T02:44:37;94108.84;;;17.45;62.81
9462;BME280;4769;42.660;23.262;2023-07-28T02:47:03;94106.19;;;17.45;62.28
9462;BME280;4769;42.660;23.262;2023-07-28T02:49:29;94098.47;;;17.39;62.57
9462;BME280;4769;42.660;23.262;2023-07-28T02:51:57;94104.59;;;17.44;62.32
9462;BME280;4769;42.660;23.262;2023-07-28T02:54:23;94099.09;;;17.31;62.94
9462;BME280;4769;42.660;23.262;2023-07-28T02:56:49;94099.84;;;17.36;63.26
9462;BME280;4769;42.660;23.262;2023-07-28T02:59:15;94095.00;;;17.38;63.16
9462;BME280;4769;42.660;23.262;2023-07-28T03:01:41;94105.00;;;17.28;63.95
9462;BME280;4769;42.660;23.262;2023-07-28T03:04:06;94088.94;;;17.33;63.88
9462;BME280;4769;42.660;23.262;2023-07-28T03:06:32;94104.47;;;17.26;64.59
9462;BME280;4769;42.660;23.262;2023-07-28T03:09:01;94100.22;;;17.25;64.79
9462;BME280;4769;42.660;23.262;2023-07-28T03:11:26;94099.41;;;17.24;64.75
9462;BME280;4769;42.660;23.262;2023-07-28T03:13:52;94097.22;;;17.03;64.90
9462;BME280;4769;42.660;23.262;2023-07-28T03:16:18;94101.03;;;17.20;64.62
9462;BME280;4769;42.660;23.262;2023-07-28T03:18:43;94102.06;;;17.24;64.52
9462;BME280;4769;42.660;23.262;2023-07-28T03:21:09;94108.97;;;17.30;64.09
9462;BME280;4769;42.660;23.262;2023-07-28T03:23:35;94102.06;;;17.24;64.73
9462;BME280;4769;42.660;23.262;2023-07-28T03:26:03;94100.16;;;17.01;65.20
9462;BME280;4769;42.660;23.262;2023-07-28T03:28:29;94108.34;;;17.10;65.00
9462;BME280;4769;42.660;23.262;2023-07-28T03:30:55;94117.88;;;17.16;64.32
9462;BME280;4769;42.660;23.262;2023-07-28T03:33:21;94117.84;;;17.21;63.79
9462;BME280;4769;42.660;23.262;2023-07-28T03:35:46;94111.91;;;17.29;63.97
9462;BME280;4769;42.660;23.262;2023-07-28T03:38:12;94111.91;;;17.29;64.29
9462;BME280;4769;42.660;23.262;2023-07-28T03:40:38;94113.66;;;17.38;63.47
9462;BME280;4769;42.660;23.262;2023-07-28T03:43:21;94120.53;;;17.49;62.95
9462;BME280;4769;42.660;23.262;2023-07-28T03:45:47;94123.44;;;17.53;62.76
9462;BME280;4769;42.660;23.262;2023-07-28T03:48:13;94128.38;;;17.64;62.62
9462;BME280;4769;42.660;23.262;2023-07-28T03:50:38;94122.50;;;17.62;62.17
9462;BME280;4769;42.660;23.262;2023-07-28T03:53:04;94117.06;;;17.49;62.13
9462;BME280;4769;42.660;23.262;2023-07-28T03:55:30;94121.59;;;17.48;62.49
9462;BME280;4769;42.660;23.262;2023-07-28T03:57:56;94112.66;;;17.63;62.31
9462;BME280;4769;42.660;23.262;2023-07-28T04:00:24;94108.34;;;17.67;62.06
9462;BME280;4769;42.660;23.262;2023-07-28T04:02:50;94114.97;;;17.69;61.61
9462;BME280;4769;42.660;23.262;2023-07-28T04:05:16;94121.28;;;17.78;61.52
9462;BME280;4769;42.660;23.262;2023-07-28T04:07:41;94118.00;;;17.86;60.94
9462;BME280;4769;42.660;23.262;2023-07-28T04:10:08;94120.25;;;17.74;61.55
9462;BME280;4769;42.660;23.262;2023-07-28T04:12:34;94127.44;;;17.74;62.32
9462;BME280;4769;42.660;23.262;2023-07-28T04:14:59;94123.66;;;17.80;62.05
9462;BME280;4769;42.660;23.262;2023-07-28T04:17:28;94131.16;;;18.01;61.92
9462;BME280;4769;42.660;23.262;2023-07-28T04:19:53;94134.72;;;18.15;60.85
9462;BME280;4769;42.660;23.262;2023-07-28T04:22:19;94128.75;;;18.23;60.23
9462;BME280;4769;42.660;23.262;2023-07-28T04:24:45;94124.59;;;18.36;59.37
9462;BME280;4769;42.660;23.262;2023-07-28T04:27:10;94119.13;;;18.22;59.97
9462;BME280;4769;42.660;23.262;2023-07-28T04:29:36;94133.50;;;18.26;59.63
9462;BME280;4769;42.660;23.262;2023-07-28T04:32:02;94125.34;;;18.18;60.36
9462;BME280;4769;42.660;23.262;2023-07-28T04:34:32;94130.13;;;18.21;60.63
9462;BME280;4769;42.660;23.262;2023-07-28T04:36:58;94136.94;;;18.50;60.41
9462;BME280;4769;42.660;23.262;2023-07-28T04:39:24;94124.88;;;18.53;59.42
9462;BME280;4769;42.660;23.262;2023-07-28T04:41:50;94130.53;;;18.51;59.34
9462;BME280;4769;42.660;23.262;2023-07-28T04:44:15;94129.22;;;18.67;58.90
9462;BME280;4769;42.660;23.262;2023-07-28T04:46:41;94134.69;;;18.76;58.32
9462;BME280;4769;42.660;23.262;2023-07-28T04:49:07;94124.44;;;18.64;58.39
9462;BME280;4769;42.660;23.262;2023-07-28T04:51:35;94136.00;;;18.78;58.37
9462;BME280;4769;42.660;23.262;2023-07-28T04:54:01;94127.69;;;18.80;58.14
9462;BME280;4769;42.660;23.262;2023-07-28T04:56:26;94129.84;;;18.96;57.69
9462;BME280;4769;42.660;23.262;2023-07-28T04:58:52;94129.47;;;19.03;57.58
9462;BME280;4769;42.660;23.262;2023-07-28T05:01:18;94125.06;;;19.12;57.81
9462;BME280;4769;42.660;23.262;2023-07-28T05:03:43;94116.56;;;19.10;57.55
9462;BME280;4769;42.660;23.262;2023-07-28T05:06:09;94117.16;;;19.20;57.08
9462;BME280;4769;42.660;23.262;2023-07-28T05:08:37;94117.50;;;19.64;56.45
9462;BME280;4769;42.660;23.262;2023-07-28T05:11:03;94122.41;;;19.57;55.65
9462;BME280;4769;42.660;23.262;2023-07-28T05:13:29;94122.84;;;19.64;55.18
9462;BME280;4769;42.660;23.262;2023-07-28T05:15:54;94122.66;;;19.61;54.58
9462;BME280;4769;42.660;23.262;2023-07-28T05:18:20;94114.91;;;19.73;54.15
9462;BME280;4769;42.660;23.262;2023-07-28T05:20:46;94124.25;;;19.89;53.82
9462;BME280;4769;42.660;23.262;2023-07-28T05:23:11;94121.25;;;19.90;53.16
9462;BME280;4769;42.660;23.262;2023-07-28T05:25:40;94125.94;;;19.98;53.22
9462;BME280;4769;42.660;23.262;2023-07-28T05:28:06;94120.00;;;20.01;52.69
9462;BME280;4769;42.660;23.262;2023-07-28T05:30:32;94121.09;;;20.00;52.69
9462;BME280;4769;42.660;23.262;2023-07-28T05:32:57;94124.44;;;19.92;52.95
9462;BME280;4769;42.660;23.262;2023-07-28T05:35:23;94121.28;;;20.04;52.86
9462;BME280;4769;42.660;23.262;2023-07-28T05:37:49;94120.59;;;19.85;53.28
9462;BME280;4769;42.660;23.262;2023-07-28T05:40:14;94119.47;;;19.99;53.07
9462;BME280;4769;42.660;23.262;2023-07-28T05:42:43;94124.88;;;20.13;52.90
9462;BME280;4769;42.660;23.262;2023-07-28T05:45:09;94119.06;;;20.46;52.03
9462;BME280;4769;42.660;23.262;2023-07-28T05:47:35;94124.81;;;20.53;51.71
9462;BME280;4769;42.660;23.262;2023-07-28T05:50:01;94112.00;;;20.64;50.94
9462;BME280;4769;42.660;23.262;2023-07-28T05:52:26;94109.50;;;20.67;50.72
9462;BME280;4769;42.660;23.262;2023-07-28T05:54:52;94118.28;;;20.81;49.76
9462;BME280;4769;42.660;23.262;2023-07-28T05:57:18;94111.22;;;20.85;49.91
9462;BME280;4769;42.660;23.262;2023-07-28T05:59:46;94101.28;;;20.99;49.43
9462;BME280;4769;42.660;23.262;2023-07-28T06:02:12;94092.50;;;21.07;49.95
9462;BME280;4769;42.660;23.262;2023-07-28T06:04:37;94099.03;;;21.15;49.72
9462;BME280;4769;42.660;23.262;2023-07-28T06:07:03;94093.63;;;21.37;48.92
9462;BME280;4769;42.660;23.262;2023-07-28T06:09:29;94098.25;;;21.45;48.38
9462;BME280;4769;42.660;23.262;2023-07-28T06:11:55;94103.31;;;21.46;47.58
9462;BME280;4769;42.660;23.262;2023-07-28T06:14:20;94107.19;;;21.10;48.60
9462;BME280;4769;42.660;23.262;2023-07-28T06:16:49;94104.91;;;21.25;48.34
9462;BME280;4769;42.660;23.262;2023-07-28T06:19:14;94113.63;;;21.53;47.72
9462;BME280;4769;42.660;23.262;2023-07-28T06:21:40;94103.56;;;21.89;47.33
9462;BME280;4769;42.660;23.262;2023-07-28T06:24:06;94114.31;;;21.67;47.59
9462;BME280;4769;42.660;23.262;2023-07-28T06:26:31;94093.47;;;21.94;46.90
9462;BME280;4769;42.660;23.262;2023-07-28T06:28:57;94099.56;;;22.25;46.23
9462;BME280;4769;42.660;23.262;2023-07-28T06:31:23;94098.38;;;22.48;45.41
9462;BME280;4769;42.660;23.262;2023-07-28T06:33:51;94089.53;;;22.48;45.27
9462;BME280;4769;42.660;23.262;2023-07-28T06:36:17;94091.28;;;22.52;44.63
9462;BME280;4769;42.660;23.262;2023-07-28T06:38:43;94085.63;;;22.79;44.44
9462;BME280;4769;42.660;23.262;2023-07-28T06:41:08;94084.19;;;22.65;44.23
9462;BME280;4769;42.660;23.262;2023-07-28T06:43:34;94080.53;;;22.95;43.13
9462;BME280;4769;42.660;23.262;2023-07-28T06:46:00;94094.16;;;22.98;43.41
9462;BME280;4769;42.660;23.262;2023-07-28T06:48:25;94090.34;;;23.08;43.43
9462;BME280;4769;42.660;23.262;2023-07-28T06:50:54;94089.69;;;23.28;42.84
9462;BME280;4769;42.660;23.262;2023-07-28T06:53:19;94093.03;;;23.33;42.66
9462;BME280;4769;42.660;23.262;2023-07-28T06:55:45;94089.84;;;23.40;42.67
9462;BME280;4769;42.660;23.262;2023-07-28T06:58:11;94095.81;;;23.62;41.83
9462;BME280;4769;42.660;23.262;2023-07-28T07:00:36;94098.63;;;23.92;41.48
9462;BME280;4769;42.660;23.262;2023-07-28T07:03:02;94093.69;;;23.94;41.02
9462;BME280;4769;42.660;23.262;2023-07-28T07:05:28;94079.09;;;23.95;40.37
9462;BME280;4769;42.660;23.262;2023-07-28T07:07:56;94086.63;;;24.10;40.15
9462;BME280;4769;42.660;23.262;2023-07-28T07:10:22;94082.75;;;23.81;40.95
9462;BME280;4769;42.660;23.262;2023-07-28T07:12:48;94086.78;;;24.13;40.50
9462;BME280;4769;42.660;23.262;2023-07-28T07:15:13;94089.38;;;24.30;39.83
9462;BME280;4769;42.660;23.262;2023-07-28T07:17:39;94084.19;;;24.25;40.12
9462;BME280;4769;42.660;23.262;2023-07-28T07:20:06;94088.53;;;24.38;40.61
9462;BME280;4769;42.660;23.262;2023-07-28T07:22:32;94082.03;;;24.89;39.47
9462;BME280;4769;42.660;23.262;2023-07-28T07:25:01;94086.25;;;24.78;38.87
9462;BME280;4769;42.660;23.262;2023-07-28T07:27:26;94088.31;;;24.81;38.81
9462;BME280;4769;42.660;23.262;2023-07-28T07:29:52;94091.25;;;24.88;38.57
9462;BME280;4769;42.660;23.262;2023-07-28T07:32:18;94096.41;;;24.81;38.05
9462;BME280;4769;42.660;23.262;2023-07-28T07:34:43;94101.78;;;25.01;37.97
9462;BME280;4769;42.660;23.262;2023-07-28T07:37:09;94089.91;;;25.35;37.31
9462;BME280;4769;42.660;23.262;2023-07-28T07:39:35;94092.97;;;25.13;37.75
9462;BME280;4769;42.660;23.262;2023-07-28T07:42:04;94101.84;;;25.34;37.54
9462;BME280;4769;42.660;23.262;2023-07-28T07:44:29;94096.66;;;25.61;37.18
9462;BME280;4769;42.660;23.262;2023-07-28T07:46:55;94097.53;;;25.53;36.98
9462;BME280;4769;42.660;23.262;2023-07-28T07:49:21;94097.72;;;25.81;36.88
9462;BME280;4769;42.660;23.262;2023-07-28T07:51:47;94093.28;;;26.21;36.02
9462;BME280;4769;42.660;23.262;2023-07-28T07:54:13;94100.16;;;26.66;35.19
9462;BME280;4769;42.660;23.262;2023-07-28T07:56:38;94098.03;;;26.60;34.84
9462;BME280;4769;42.660;23.262;2023-07-28T07:59:06;94094.72;;;26.06;35.54
9462;BME280;4769;42.660;23.262;2023-07-28T08:01:32;94101.16;;;26.38;34.98
9462;BME280;4769;42.660;23.262;2023-07-28T08:03:58;94095.75;;;26.14;35.38
9462;BME280;4769;42.660;23.262;2023-07-28T08:06:24;94106.47;;;26.34;35.21
9462;BME280;4769;42.660;23.262;2023-07-28T08:08:49;94096.09;;;26.72;34.81
9462;BME280;4769;42.660;23.262;2023-07-28T08:11:15;94090.59;;;27.20;33.82
9462;BME280;4769;42.660;23.262;2023-07-28T08:13:41;94086.34;;;27.35;33.30
9462;BME280;4769;42.660;23.262;2023-07-28T08:16:09;94098.16;;;27.42;33.41
9462;BME280;4769;42.660;23.262;2023-07-28T08:18:35;94085.72;;;27.96;32.55
9462;BME280;4769;42.660;23.262;2023-07-28T08:21:00;94083.56;;;28.17;32.50
9462;BME280;4769;42.660;23.262;2023-07-28T08:23:26;94076.22;;;28.49;31.67
9462;BME280;4769;42.660;23.262;2023-07-28T08:25:52;94081.56;;;28.80;31.53
9462;BME280;4769;42.660;23.262;2023-07-28T08:28:18;94076.03;;;28.42;31.59
9462;BME280;4769;42.660;23.262;2023-07-28T08:30:43;94079.66;;;28.65;31.31
9462;BME280;4769;42.660;23.262;2023-07-28T08:33:11;94074.16;;;28.96;31.00
9462;BME280;4769;42.660;23.262;2023-07-28T08:35:37;94080.28;;;28.93;30.67
9462;BME280;4769;42.660;23.262;2023-07-28T08:38:03;94080.06;;;29.17;30.75
9462;BME280;4769;42.660;23.262;2023-07-28T08:40:28;94076.22;;;28.99;30.79
9462;BME280;4769;42.660;23.262;2023-07-28T08:42:54;94066.06;;;28.80;31.11
9462;BME280;4769;42.660;23.262;2023-07-28T08:45:21;94075.34;;;29.14;30.65
9462;BME280;4769;42.660;23.262;2023-07-28T08:47:47;94067.56;;;29.31;30.71
9462;BME280;4769;42.660;23.262;2023-07-28T08:50:16;94078.13;;;29.17;29.86
9462;BME280;4769;42.660;23.262;2023-07-28T08:52:41;94077.50;;;29.43;30.07
9462;BME280;4769;42.660;23.262;2023-07-28T08:55:08;94067.44;;;29.43;29.56
9462;BME280;4769;42.660;23.262;2023-07-28T08:57:33;94056.97;;;29.64;28.91
9462;BME280;4769;42.660;23.262;2023-07-28T09:00:06;94057.22;;;30.01;28.86
9462;BME280;4769;42.660;23.262;2023-07-28T09:02:32;94057.94;;;30.17;28.79
9462;BME280;4769;42.660;23.262;2023-07-28T09:04:59;94046.75;;;30.22;28.90
9462;BME280;4769;42.660;23.262;2023-07-28T09:07:33;94043.69;;;30.72;27.85
9462;BME280;4769;42.660;23.262;2023-07-28T09:09:59;94033.53;;;30.98;27.81
9462;BME280;4769;42.660;23.262;2023-07-28T09:12:25;94022.28;;;31.29;27.63
9462;BME280;4769;42.660;23.262;2023-07-28T09:14:55;94022.81;;;31.75;26.78
9462;BME280;4769;42.660;23.262;2023-07-28T09:17:21;94019.25;;;31.08;27.33
9462;BME280;4769;42.660;23.262;2023-07-28T09:19:51;94015.38;;;31.39;27.04
9462;BME280;4769;42.660;23.262;2023-07-28T09:22:17;94016.25;;;31.50;26.76
9462;BME280;4769;42.660;23.262;2023-07-28T09:24:46;94015.09;;;31.84;26.28
9462;BME280;4769;42.660;23.262;2023-07-28T09:27:19;94012.19;;;32.10;25.66
9462;BME280;4769;42.660;23.262;2023-07-28T09:29:47;94002.69;;;31.93;25.80
9462;BME280;4769;42.660;23.262;2023-07-28T09:32:13;93991.22;;;32.17;25.57
9462;BME280;4769;42.660;23.262;2023-07-28T09:34:39;93998.13;;;30.98;26.43
9462;BME280;4769;42.660;23.262;2023-07-28T09:37:05;93987.00;;;31.80;25.89
9462;BME280;4769;42.660;23.262;2023-07-28T09:39:33;93985.13;;;32.35;25.60
9462;BME280;4769;42.660;23.262;2023-07-28T09:42:09;93982.41;;;32.35;25.20
9462;BME280;4769;42.660;23.262;2023-07-28T09:44:34;93979.31;;;31.89;25.56
9462;BME280;4769;42.660;23.262;2023-07-28T09:47:01;93987.84;;;31.84;25.54
9462;BME280;4769;42.660;23.262;2023-07-28T09:49:28;93980.19;;;31.63;25.71
9462;BME280;4769;42.660;23.262;2023-07-28T09:51:58;93971.00;;;32.22;24.77
9462;BME280;4769;42.660;23.262;2023-07-28T09:54:28;93959.50;;;31.99;25.20
9462;BME280;4769;42.660;23.262;2023-07-28T09:56:55;93969.78;;;32.16;25.71
9462;BME280;4769;42.660;23.262;2023-07-28T09:59:27;93973.81;;;32.90;24.98
9462;BME280;4769;42.660;23.262;2023-07-28T10:01:53;93966.41;;;32.94;24.92
9462;BME280;4769;42.660;23.262;2023-07-28T10:04:20;93967.19;;;33.02;24.71
9462;BME280;4769;42.660;23.262;2023-07-28T10:06:47;93957.16;;;33.27;24.33
9462;BME280;4769;42.660;23.262;2023-07-28T10:09:13;93949.50;;;33.81;23.86
9462;BME280;4769;42.660;23.262;2023-07-28T10:11:39;93952.19;;;33.71;24.04
9462;BME280;4769;42.660;23.262;2023-07-28T10:14:07;93958.75;;;33.31;23.71
9462;BME280;4769;42.660;23.262;2023-07-28T10:16:40;93950.59;;;33.38;23.76
9462;BME280;4769;42.660;23.262;2023-07-28T10:19:06;93962.69;;;33.37;22.79
9462;BME280;4769;42.660;23.262;2023-07-28T10:21:31;93962.97;;;33.11;22.92
9462;BME280;4769;42.660;23.262;2023-07-28T10:24:04;93946.69;;;33.36;22.92
9462;BME280;4769;42.660;23.262;2023-07-28T10:26:36;93954.56;;;33.79;22.69
9462;BME280;4769;42.660;23.262;2023-07-28T10:29:13;93936.50;;;33.36;21.70
9462;BME280;4769;42.660;23.262;2023-07-28T10:31:52;93935.38;;;33.58;22.81
9462;BME280;4769;42.660;23.262;2023-07-28T10:34:18;93940.78;;;33.30;22.92
9462;BME280;4769;42.660;23.262;2023-07-28T10:36:44;93936.53;;;33.40;21.84
9462;BME280;4769;42.660;23.262;2023-07-28T10:39:13;93935.41;;;33.65;21.32
9462;BME280;4769;42.660;23.262;2023-07-28T10:41:40;93935.06;;;33.98;20.96
9462;BME280;4769;42.660;23.262;2023-07-28T10:44:25;93931.91;;;33.79;21.24
9462;BME280;4769;42.660;23.262;2023-07-28T10:46:54;93934.91;;;32.46;22.32
9462;BME280;4769;42.660;23.262;2023-07-28T10:49:20;93938.75;;;30.52;25.59
9462;BME280;4769;42.660;23.262;2023-07-28T10:51:45;93936.59;;;30.94;25.16
9462;BME280;4769;42.660;23.262;2023-07-28T10:54:11;93922.22;;;32.14;22.99
9462;BME280;4769;42.660;23.262;2023-07-28T10:56:37;93915.75;;;33.14;21.77
9462;BME280;4769;42.660;23.262;2023-07-28T10:59:04;93907.56;;;33.25;21.38
9462;BME280;4769;42.660;23.262;2023-07-28T11:01:34;93912.38;;;33.87;20.85
9462;BME280;4769;42.660;23.262;2023-07-28T11:04:09;93906.88;;;33.49;21.09
9462;BME280;4769;42.660;23.262;2023-07-28T11:06:35;93906.38;;;33.12;20.56
9462;BME280;4769;42.660;23.262;2023-07-28T11:09:01;93898.09;;;32.87;21.08
9462;BME280;4769;42.660;23.262;2023-07-28T11:11:27;93892.38;;;33.41;20.75
9462;BME280;4769;42.660;23.262;2023-07-28T11:13:53;93892.84;;;33.85;20.88
9462;BME280;4769;42.660;23.262;2023-07-28T11:16:19;93895.13;;;33.55;20.64
9462;BME280;4769;42.660;23.262;2023-07-28T11:18:44;93894.56;;;32.83;20.44
9462;BME280;4769;42.660;23.262;2023-07-28T11:21:17;93890.19;;;32.68;21.41
9462;BME280;4769;42.660;23.262;2023-07-28T11:23:44;93881.00;;;33.11;20.71
9462;BME280;4769;42.660;23.262;2023-07-28T11:26:10;93890.44;;;32.39;21.87
9462;BME280;4769;42.660;23.262;2023-07-28T11:28:36;93880.06;;;32.76;21.96
9462;BME280;4769;42.660;23.262;2023-07-28T11:31:03;93884.19;;;33.38;21.34
9462;BME280;4769;42.660;23.262;2023-07-28T11:33:29;93879.94;;;34.03;20.80
9462;BME280;4769;42.660;23.262;2023-07-28T11:35:54;93864.13;;;34.77;20.05
9462;BME280;4769;42.660;23.262;2023-07-28T11:38:23;93860.22;;;35.50;18.74
9462;BME280;4769;42.660;23.262;2023-07-28T11:40:49;93866.63;;;35.33;19.05
9462;BME280;4769;42.660;23.262;2023-07-28T11:43:16;93871.63;;;34.52;20.06
9462;BME280;4769;42.660;23.262;2023-07-28T11:45:43;93858.44;;;33.63;21.29
9462;BME280;4769;42.660;23.262;2023-07-28T11:48:08;93863.88;;;34.19;21.63
9462;BME280;4769;42.660;23.262;2023-07-28T11:50:36;93866.56;;;34.54;20.98
9462;BME280;4769;42.660;23.262;2023-07-28T11:53:03;93849.13;;;35.06;20.26
9462;BME280;4769;42.660;23.262;2023-07-28T11:55:33;93874.03;;;33.42;21.71
9462;BME280;4769;42.660;23.262;2023-07-28T11:58:00;93859.34;;;32.71;22.16
9462;BME280;4769;42.660;23.262;2023-07-28T12:00:29;93867.66;;;32.99;21.65
9462;BME280;4769;42.660;23.262;2023-07-28T12:03:03;93863.81;;;33.21;22.12
9462;BME280;4769;42.660;23.262;2023-07-28T12:05:29;93856.47;;;34.16;21.42
9462;BME280;4769;42.660;23.262;2023-07-28T12:07:55;93858.03;;;33.65;22.12
9462;BME280;4769;42.660;23.262;2023-07-28T12:10:21;93848.69;;;33.59;21.96
9462;BME280;4769;42.660;23.262;2023-07-28T12:12:49;93849.44;;;34.01;21.53
9462;BME280;4769;42.660;23.262;2023-07-28T12:15:19;93847.50;;;33.98;21.57
9462;BME280;4769;42.660;23.262;2023-07-28T12:18:09;93857.22;;;34.27;21.61
9462;BME280;4769;42.660;23.262;2023-07-28T12:20:36;93844.94;;;34.74;21.69
9462;BME280;4769;42.660;23.262;2023-07-28T12:23:03;93837.28;;;34.37;21.64
9462;BME280;4769;42.660;23.262;2023-07-28T12:25:29;93839.94;;;34.62;20.67
9462;BME280;4769;42.660;23.262;2023-07-28T12:27:57;93834.63;;;35.06;20.95
9462;BME280;4769;42.660;23.262;2023-07-28T12:30:23;93832.25;;;33.83;21.87
9462;BME280;4769;42.660;23.262;2023-07-28T12:32:49;93823.66;;;33.95;22.39
9462;BME280;4769;42.660;23.262;2023-07-28T12:35:15;93819.78;;;35.03;21.70
9462;BME280;4769;42.660;23.262;2023-07-28T12:37:41;93832.91;;;35.91;20.58
9462;BME280;4769;42.660;23.262;2023-07-28T12:40:08;93821.09;;;35.46;20.60
9462;BME280;4769;42.660;23.262;2023-07-28T12:42:34;93829.06;;;35.27;20.82
9462;BME280;4769;42.660;23.262;2023-07-28T12:45:02;93816.47;;;34.61;21.44
9462;BME280;4769;42.660;23.262;2023-07-28T12:47:28;93831.91;;;33.88;22.26
9462;BME280;4769;42.660;23.262;2023-07-28T12:49:54;93826.34;;;33.25;22.52
9462;BME280;4769;42.660;23.262;2023-07-28T12:52:20;93809.56;;;33.16;23.17
9462;BME280;4769;42.660;23.262;2023-07-28T12:54:45;93810.38;;;34.01;22.61
9462;BME280;4769;42.660;23.262;2023-07-28T12:57:11;93805.78;;;34.87;21.90
9462;BME280;4769;42.660;23.262;2023-07-28T12:59:37;93797.31;;;35.29;21.28
9462;BME280;4769;42.660;23.262;2023-07-28T13:02:05;93804.78;;;35.22;21.70
9462;BME280;4769;42.660;23.262;2023-07-28T13:04:31;93797.25;;;36.28;20.83
9462;BME280;4769;42.660;23.262;2023-07-28T13:06:57;93806.31;;;37.18;19.06